sensor_id;sensor_type;location;lat;lon;timestamp;P1;durP1;ratioP1;P2;durP2;ratioP2
13171;SDS011;6651;53.200;10.432;2023-01-19T00:02:13;11.30;;;8.52;;
13171;SDS011;6651;53.200;10.432;2023-01-19T00:04:39;11.55;;;8.70;;
13171;SDS011;6651;53.200;10.432;2023-01-19T00:07:05;13.23;;;8.80;;
13171;SDS011;6651;53.200;10.432;2023-01-19T00:09:31;12.48;;;8.93;;
13171;SDS011;6651;53.200;10.432;2023-01-19T00:11:58;11.82;;;8.30;;
13171;SDS011;6651;53.200;10.432;2023-01-19T00:14:24;12.90;;;8.55;;
13171;SDS011;6651;53.200;10.432;2023-01-19T00:16:50;11.20;;;8.30;;
13171;SDS011;6651;53.200;10.432;2023-01-19T00:19:16;11.50;;;8.27;;
13171;SDS011;6651;53.200;10.432;2023-01-19T00:21:42;14.00;;;8.30;;
13171;SDS011;6651;53.200;10.432;2023-01-19T00:24:09;11.38;;;8.05;;
13171;SDS011;6651;53.200;10.432;2023-01-19T00:26:39;12.05;;;8.93;;
13171;SDS011;6651;53.200;10.432;2023-01-19T00:29:07;13.15;;;8.25;;
13171;SDS011;6651;53.200;10.432;2023-01-19T00:31:33;12.20;;;8.73;;
13171;SDS011;6651;53.200;10.432;2023-01-19T00:33:59;13.52;;;9.07;;
13171;SDS011;6651;53.200;10.432;2023-01-19T00:36:25;12.07;;;7.95;;
13171;SDS011;6651;53.200;10.432;2023-01-19T00:38:51;10.43;;;7.95;;
13171;SDS011;6651;53.200;10.432;2023-01-19T00:41:17;11.40;;;8.55;;
13171;SDS011;6651;53.200;10.432;2023-01-19T00:43:43;10.23;;;7.68;;
13171;SDS011;6651;53.200;10.432;2023-01-19T00:46:09;10.98;;;8.07;;
13171;SDS011;6651;53.200;10.432;2023-01-19T00:48:35;11.98;;;8.27;;
13171;SDS011;6651;53.200;10.432;2023-01-19T00:51:01;10.23;;;7.95;;
13171;SDS011;6651;53.200;10.432;2023-01-19T00:53:27;12.20;;;8.05;;
13171;SDS011;6651;53.200;10.432;2023-01-19T00:55:56;12.48;;;8.32;;
13171;SDS011;6651;53.200;10.432;2023-01-19T00:58:22;11.02;;;8.15;;
13171;SDS011;6651;53.200;10.432;2023-01-19T01:00:48;10.30;;;7.80;;
13171;SDS011;6651;53.200;10.432;2023-01-19T01:03:14;12.52;;;7.93;;
13171;SDS011;6651;53.200;10.432;2023-01-19T01:05:40;10.73;;;7.40;;
13171;SDS011;6651;53.200;10.432;2023-01-19T01:08:06;11.45;;;8.10;;
13171;SDS011;6651;53.200;10.432;2023-01-19T01:10:32;10.70;;;7.43;;
13171;SDS011;6651;53.200;10.432;2023-01-19T01:12:59;12.50;;;8.35;;
13171;SDS011;6651;53.200;10.432;2023-01-19T01:15:27;11.05;;;8.13;;
13171;SDS011;6651;53.200;10.432;2023-01-19T01:17:54;12.32;;;7.93;;
13171;SDS011;6651;53.200;10.432;2023-01-19T01:20:24;11.82;;;8.02;;
13171;SDS011;6651;53.200;10.432;2023-01-19T01:22:51;11.80;;;8.60;;
13171;SDS011;6651;53.200;10.432;2023-01-19T01:25:18;9.88;;;7.28;;
13171;SDS011;6651;53.200;10.432;2023-01-19T01:27:46;10.95;;;8.40;;
13171;SDS011;6651;53.200;10.432;2023-01-19T01:30:13;11.55;;;7.95;;
13171;SDS011;6651;53.200;10.432;2023-01-19T01:32:39;11.40;;;7.95;;
13171;SDS011;6651;53.200;10.432;2023-01-19T01:35:05;10.00;;;8.05;;
13171;SDS011;6651;53.200;10.432;2023-01-19T01:37:33;10.32;;;7.72;;
13171;SDS011;6651;53.200;10.432;2023-01-19T01:39:59;11.50;;;7.70;;
13171;SDS011;6651;53.200;10.432;2023-01-19T01:42:28;11.00;;;7.97;;
13171;SDS011;6651;53.200;10.432;2023-01-19T01:44:55;11.20;;;8.23;;
13171;SDS011;6651;53.200;10.432;2023-01-19T01:50:05;11.27;;;7.78;;
13171;SDS011;6651;53.200;10.432;2023-01-19T01:52:33;10.27;;;7.88;;
13171;SDS011;6651;53.200;10.432;2023-01-19T01:55:00;11.43;;;8.55;;
13171;SDS011;6651;53.200;10.432;2023-01-19T01:57:27;10.63;;;8.30;;
13171;SDS011;6651;53.200;10.432;2023-01-19T01:59:54;10.52;;;7.88;;
13171;SDS011;6651;53.200;10.432;2023-01-19T02:02:23;11.65;;;7.68;;
13171;SDS011;6651;53.200;10.432;2023-01-19T02:05:10;11.55;;;8.02;;
13171;SDS011;6651;53.200;10.432;2023-01-19T02:10:22;10.60;;;7.22;;
13171;SDS011;6651;53.200;10.432;2023-01-19T02:13:06;12.63;;;8.02;;
13171;SDS011;6651;53.200;10.432;2023-01-19T02:15:45;11.23;;;7.65;;
13171;SDS011;6651;53.200;10.432;2023-01-19T02:18:11;10.23;;;7.88;;
13171;SDS011;6651;53.200;10.432;2023-01-19T02:20:38;13.82;;;7.82;;
13171;SDS011;6651;53.200;10.432;2023-01-19T02:23:07;12.50;;;8.15;;
13171;SDS011;6651;53.200;10.432;2023-01-19T02:25:39;11.52;;;7.68;;
13171;SDS011;6651;53.200;10.432;2023-01-19T02:28:06;13.07;;;8.38;;
13171;SDS011;6651;53.200;10.432;2023-01-19T02:30:32;10.02;;;7.43;;
13171;SDS011;6651;53.200;10.432;2023-01-19T02:33:00;12.40;;;7.65;;
13171;SDS011;6651;53.200;10.432;2023-01-19T02:35:26;10.73;;;7.75;;
13171;SDS011;6651;53.200;10.432;2023-01-19T02:37:52;10.85;;;7.53;;
13171;SDS011;6651;53.200;10.432;2023-01-19T02:40:18;10.45;;;7.25;;
13171;SDS011;6651;53.200;10.432;2023-01-19T02:42:47;9.52;;;7.25;;
13171;SDS011;6651;53.200;10.432;2023-01-19T02:45:16;11.77;;;7.50;;
13171;SDS011;6651;53.200;10.432;2023-01-19T02:47:47;10.68;;;7.47;;
13171;SDS011;6651;53.200;10.432;2023-01-19T02:52:55;11.27;;;8.13;;
13171;SDS011;6651;53.200;10.432;2023-01-19T02:55:25;9.25;;;7.22;;
13171;SDS011;6651;53.200;10.432;2023-01-19T02:58:10;9.75;;;7.40;;
13171;SDS011;6651;53.200;10.432;2023-01-19T03:00:46;10.00;;;7.20;;
13171;SDS011;6651;53.200;10.432;2023-01-19T03:03:23;11.07;;;7.32;;
13171;SDS011;6651;53.200;10.432;2023-01-19T03:05:57;13.18;;;7.45;;
13171;SDS011;6651;53.200;10.432;2023-01-19T03:10:53;14.00;;;7.53;;
13171;SDS011;6651;53.200;10.432;2023-01-19T03:15:53;10.98;;;7.50;;
13171;SDS011;6651;53.200;10.432;2023-01-19T03:18:22;10.77;;;7.15;;
13171;SDS011;6651;53.200;10.432;2023-01-19T03:20:50;10.65;;;7.85;;
13171;SDS011;6651;53.200;10.432;2023-01-19T03:23:17;12.43;;;7.38;;
13171;SDS011;6651;53.200;10.432;2023-01-19T03:25:45;12.48;;;7.72;;
13171;SDS011;6651;53.200;10.432;2023-01-19T03:28:13;10.15;;;7.70;;
13171;SDS011;6651;53.200;10.432;2023-01-19T03:30:41;11.88;;;7.82;;
13171;SDS011;6651;53.200;10.432;2023-01-19T03:33:11;12.20;;;8.07;;
13171;SDS011;6651;53.200;10.432;2023-01-19T03:35:42;9.40;;;7.20;;
13171;SDS011;6651;53.200;10.432;2023-01-19T03:38:11;12.02;;;7.85;;
13171;SDS011;6651;53.200;10.432;2023-01-19T03:40:38;11.65;;;8.23;;
13171;SDS011;6651;53.200;10.432;2023-01-19T03:43:04;10.85;;;7.15;;
13171;SDS011;6651;53.200;10.432;2023-01-19T03:45:31;10.23;;;7.30;;
13171;SDS011;6651;53.200;10.432;2023-01-19T03:47:58;10.13;;;7.45;;
13171;SDS011;6651;53.200;10.432;2023-01-19T03:50:28;9.60;;;7.65;;
13171;SDS011;6651;53.200;10.432;2023-01-19T03:53:11;11.50;;;7.53;;
13171;SDS011;6651;53.200;10.432;2023-01-19T03:55:38;11.90;;;7.85;;
13171;SDS011;6651;53.200;10.432;2023-01-19T03:58:04;10.80;;;7.10;;
13171;SDS011;6651;53.200;10.432;2023-01-19T04:00:31;11.77;;;7.40;;
13171;SDS011;6651;53.200;10.432;2023-01-19T04:02:57;9.77;;;7.38;;
13171;SDS011;6651;53.200;10.432;2023-01-19T04:05:24;10.25;;;7.85;;
13171;SDS011;6651;53.200;10.432;2023-01-19T04:07:50;9.60;;;7.00;;
13171;SDS011;6651;53.200;10.432;2023-01-19T04:10:17;10.45;;;7.97;;
13171;SDS011;6651;53.200;10.432;2023-01-19T04:12:43;10.65;;;7.45;;
13171;SDS011;6651;53.200;10.432;2023-01-19T04:15:09;11.48;;;8.25;;
13171;SDS011;6651;53.200;10.432;2023-01-19T04:17:35;9.75;;;7.40;;
13171;SDS011;6651;53.200;10.432;2023-01-19T04:20:02;10.60;;;7.20;;
13171;SDS011;6651;53.200;10.432;2023-01-19T04:22:28;9.02;;;7.30;;
13171;SDS011;6651;53.200;10.432;2023-01-19T04:24:54;9.68;;;7.45;;
13171;SDS011;6651;53.200;10.432;2023-01-19T04:27:20;10.27;;;7.45;;
13171;SDS011;6651;53.200;10.432;2023-01-19T04:29:46;11.50;;;7.93;;
13171;SDS011;6651;53.200;10.432;2023-01-19T04:32:12;9.65;;;7.50;;
13171;SDS011;6651;53.200;10.432;2023-01-19T04:34:38;11.25;;;7.90;;
13171;SDS011;6651;53.200;10.432;2023-01-19T04:37:05;11.30;;;6.97;;
13171;SDS011;6651;53.200;10.432;2023-01-19T04:39:32;10.85;;;8.05;;
13171;SDS011;6651;53.200;10.432;2023-01-19T04:41:58;11.05;;;8.15;;
13171;SDS011;6651;53.200;10.432;2023-01-19T04:44:25;11.95;;;8.15;;
13171;SDS011;6651;53.200;10.432;2023-01-19T04:46:51;11.85;;;8.20;;
13171;SDS011;6651;53.200;10.432;2023-01-19T04:49:17;9.88;;;7.63;;
13171;SDS011;6651;53.200;10.432;2023-01-19T04:51:44;10.48;;;7.38;;
13171;SDS011;6651;53.200;10.432;2023-01-19T04:54:10;11.43;;;7.43;;
13171;SDS011;6651;53.200;10.432;2023-01-19T04:56:36;10.43;;;8.15;;
13171;SDS011;6651;53.200;10.432;2023-01-19T04:59:04;12.40;;;8.07;;
13171;SDS011;6651;53.200;10.432;2023-01-19T05:01:30;10.60;;;7.65;;
13171;SDS011;6651;53.200;10.432;2023-01-19T05:03:59;11.82;;;8.18;;
13171;SDS011;6651;53.200;10.432;2023-01-19T05:06:27;10.18;;;7.47;;
13171;SDS011;6651;53.200;10.432;2023-01-19T05:08:53;9.43;;;7.13;;
13171;SDS011;6651;53.200;10.432;2023-01-19T05:11:19;11.73;;;7.75;;
13171;SDS011;6651;53.200;10.432;2023-01-19T05:13:45;10.10;;;7.38;;
13171;SDS011;6651;53.200;10.432;2023-01-19T05:16:12;9.20;;;7.10;;
13171;SDS011;6651;53.200;10.432;2023-01-19T05:18:38;10.27;;;7.45;;
13171;SDS011;6651;53.200;10.432;2023-01-19T05:21:04;13.20;;;7.70;;
13171;SDS011;6651;53.200;10.432;2023-01-19T05:23:30;10.82;;;8.02;;
13171;SDS011;6651;53.200;10.432;2023-01-19T05:25:57;9.98;;;7.68;;
13171;SDS011;6651;53.200;10.432;2023-01-19T05:28:25;11.07;;;8.10;;
13171;SDS011;6651;53.200;10.432;2023-01-19T05:30:51;13.05;;;8.20;;
13171;SDS011;6651;53.200;10.432;2023-01-19T05:33:18;9.82;;;8.13;;
13171;SDS011;6651;53.200;10.432;2023-01-19T05:35:45;9.52;;;7.32;;
13171;SDS011;6651;53.200;10.432;2023-01-19T05:38:11;11.90;;;8.25;;
13171;SDS011;6651;53.200;10.432;2023-01-19T05:40:37;10.75;;;8.30;;
13171;SDS011;6651;53.200;10.432;2023-01-19T05:43:03;11.20;;;8.40;;
13171;SDS011;6651;53.200;10.432;2023-01-19T05:45:29;9.63;;;7.88;;
13171;SDS011;6651;53.200;10.432;2023-01-19T05:47:55;9.40;;;7.63;;
13171;SDS011;6651;53.200;10.432;2023-01-19T05:50:21;10.57;;;7.90;;
13171;SDS011;6651;53.200;10.432;2023-01-19T05:52:48;11.48;;;7.85;;
13171;SDS011;6651;53.200;10.432;2023-01-19T05:55:14;9.95;;;7.88;;
13171;SDS011;6651;53.200;10.432;2023-01-19T05:57:40;11.25;;;8.23;;
13171;SDS011;6651;53.200;10.432;2023-01-19T06:00:07;13.15;;;8.52;;
13171;SDS011;6651;53.200;10.432;2023-01-19T06:02:33;11.23;;;8.20;;
13171;SDS011;6651;53.200;10.432;2023-01-19T06:04:59;11.25;;;8.15;;
13171;SDS011;6651;53.200;10.432;2023-01-19T06:07:26;13.05;;;9.32;;
13171;SDS011;6651;53.200;10.432;2023-01-19T06:09:52;9.88;;;8.68;;
13171;SDS011;6651;53.200;10.432;2023-01-19T06:12:18;13.25;;;8.68;;
13171;SDS011;6651;53.200;10.432;2023-01-19T06:14:44;10.55;;;8.13;;
13171;SDS011;6651;53.200;10.432;2023-01-19T06:17:10;12.20;;;8.32;;
13171;SDS011;6651;53.200;10.432;2023-01-19T06:19:36;12.15;;;9.30;;
13171;SDS011;6651;53.200;10.432;2023-01-19T06:22:02;10.65;;;8.10;;
13171;SDS011;6651;53.200;10.432;2023-01-19T06:24:28;13.73;;;8.90;;
13171;SDS011;6651;53.200;10.432;2023-01-19T06:26:54;12.32;;;8.73;;
13171;SDS011;6651;53.200;10.432;2023-01-19T06:29:20;12.60;;;9.15;;
13171;SDS011;6651;53.200;10.432;2023-01-19T06:31:47;11.45;;;8.68;;
13171;SDS011;6651;53.200;10.432;2023-01-19T06:34:13;11.07;;;8.35;;
13171;SDS011;6651;53.200;10.432;2023-01-19T06:36:39;12.00;;;9.00;;
13171;SDS011;6651;53.200;10.432;2023-01-19T06:39:05;12.07;;;8.40;;
13171;SDS011;6651;53.200;10.432;2023-01-19T06:41:32;11.88;;;8.77;;
13171;SDS011;6651;53.200;10.432;2023-01-19T06:43:58;11.65;;;8.50;;
13171;SDS011;6651;53.200;10.432;2023-01-19T06:46:24;11.10;;;8.70;;
13171;SDS011;6651;53.200;10.432;2023-01-19T06:48:50;10.73;;;8.32;;
13171;SDS011;6651;53.200;10.432;2023-01-19T06:51:16;12.43;;;8.68;;
13171;SDS011;6651;53.200;10.432;2023-01-19T06:53:42;12.77;;;8.80;;
13171;SDS011;6651;53.200;10.432;2023-01-19T06:56:08;10.60;;;8.32;;
13171;SDS011;6651;53.200;10.432;2023-01-19T06:58:34;12.45;;;9.30;;
13171;SDS011;6651;53.200;10.432;2023-01-19T07:01:00;11.45;;;9.02;;
13171;SDS011;6651;53.200;10.432;2023-01-19T07:03:27;11.88;;;9.13;;
13171;SDS011;6651;53.200;10.432;2023-01-19T07:05:54;10.80;;;8.63;;
13171;SDS011;6651;53.200;10.432;2023-01-19T07:08:21;11.45;;;8.93;;
13171;SDS011;6651;53.200;10.432;2023-01-19T07:10:47;11.43;;;8.00;;
13171;SDS011;6651;53.200;10.432;2023-01-19T07:13:13;10.90;;;8.82;;
13171;SDS011;6651;53.200;10.432;2023-01-19T07:15:40;12.73;;;9.60;;
13171;SDS011;6651;53.200;10.432;2023-01-19T07:18:06;11.88;;;8.68;;
13171;SDS011;6651;53.200;10.432;2023-01-19T07:20:33;13.35;;;8.80;;
13171;SDS011;6651;53.200;10.432;2023-01-19T07:22:59;11.48;;;8.82;;
13171;SDS011;6651;53.200;10.432;2023-01-19T07:25:27;10.80;;;8.73;;
13171;SDS011;6651;53.200;10.432;2023-01-19T07:27:59;11.35;;;9.00;;
13171;SDS011;6651;53.200;10.432;2023-01-19T07:30:25;14.90;;;9.40;;
13171;SDS011;6651;53.200;10.432;2023-01-19T07:32:53;11.05;;;8.90;;
13171;SDS011;6651;53.200;10.432;2023-01-19T07:35:20;12.23;;;9.18;;
13171;SDS011;6651;53.200;10.432;2023-01-19T07:37:46;11.15;;;9.05;;
13171;SDS011;6651;53.200;10.432;2023-01-19T07:40:12;11.63;;;8.80;;
13171;SDS011;6651;53.200;10.432;2023-01-19T07:42:38;12.80;;;9.40;;
13171;SDS011;6651;53.200;10.432;2023-01-19T07:45:04;13.93;;;9.25;;
13171;SDS011;6651;53.200;10.432;2023-01-19T07:47:30;12.07;;;9.07;;
13171;SDS011;6651;53.200;10.432;2023-01-19T07:49:56;13.00;;;9.32;;
13171;SDS011;6651;53.200;10.432;2023-01-19T07:52:22;12.10;;;9.68;;
13171;SDS011;6651;53.200;10.432;2023-01-19T07:54:48;12.25;;;9.15;;
13171;SDS011;6651;53.200;10.432;2023-01-19T07:57:15;11.55;;;9.38;;
13171;SDS011;6651;53.200;10.432;2023-01-19T07:59:41;13.13;;;9.70;;
13171;SDS011;6651;53.200;10.432;2023-01-19T08:02:08;11.23;;;9.38;;
13171;SDS011;6651;53.200;10.432;2023-01-19T08:04:34;12.43;;;9.20;;
13171;SDS011;6651;53.200;10.432;2023-01-19T08:07:00;10.65;;;9.07;;
13171;SDS011;6651;53.200;10.432;2023-01-19T08:09:27;13.48;;;9.40;;
13171;SDS011;6651;53.200;10.432;2023-01-19T08:11:53;12.35;;;9.50;;
13171;SDS011;6651;53.200;10.432;2023-01-19T08:14:19;15.02;;;9.90;;
13171;SDS011;6651;53.200;10.432;2023-01-19T08:16:45;14.95;;;10.45;;
13171;SDS011;6651;53.200;10.432;2023-01-19T08:19:12;11.48;;;10.02;;
13171;SDS011;6651;53.200;10.432;2023-01-19T08:21:38;12.38;;;10.05;;
13171;SDS011;6651;53.200;10.432;2023-01-19T08:24:04;14.77;;;9.93;;
13171;SDS011;6651;53.200;10.432;2023-01-19T08:26:31;12.15;;;9.88;;
13171;SDS011;6651;53.200;10.432;2023-01-19T08:28:59;11.75;;;9.90;;
13171;SDS011;6651;53.200;10.432;2023-01-19T08:31:26;12.80;;;9.82;;
13171;SDS011;6651;53.200;10.432;2023-01-19T08:33:52;12.77;;;9.30;;
13171;SDS011;6651;53.200;10.432;2023-01-19T08:36:19;12.45;;;9.43;;
13171;SDS011;6651;53.200;10.432;2023-01-19T08:38:45;11.30;;;8.82;;
13171;SDS011;6651;53.200;10.432;2023-01-19T08:41:11;11.90;;;8.88;;
13171;SDS011;6651;53.200;10.432;2023-01-19T08:43:38;11.20;;;8.23;;
13171;SDS011;6651;53.200;10.432;2023-01-19T08:46:04;10.52;;;8.55;;
13171;SDS011;6651;53.200;10.432;2023-01-19T08:48:30;11.63;;;8.75;;
13171;SDS011;6651;53.200;10.432;2023-01-19T08:50:56;10.25;;;7.63;;
13171;SDS011;6651;53.200;10.432;2023-01-19T08:53:23;11.15;;;8.38;;
13171;SDS011;6651;53.200;10.432;2023-01-19T08:55:52;9.52;;;8.00;;
13171;SDS011;6651;53.200;10.432;2023-01-19T08:58:19;10.10;;;7.93;;
13171;SDS011;6651;53.200;10.432;2023-01-19T09:00:45;10.85;;;7.80;;
13171;SDS011;6651;53.200;10.432;2023-01-19T09:03:12;9.38;;;7.45;;
13171;SDS011;6651;53.200;10.432;2023-01-19T09:05:39;8.88;;;7.00;;
13171;SDS011;6651;53.200;10.432;2023-01-19T09:08:06;10.05;;;7.38;;
13171;SDS011;6651;53.200;10.432;2023-01-19T09:10:33;9.60;;;7.07;;
13171;SDS011;6651;53.200;10.432;2023-01-19T09:13:02;9.50;;;7.35;;
13171;SDS011;6651;53.200;10.432;2023-01-19T09:15:29;10.65;;;6.80;;
13171;SDS011;6651;53.200;10.432;2023-01-19T09:17:56;9.10;;;6.60;;
13171;SDS011;6651;53.200;10.432;2023-01-19T09:20:22;9.20;;;6.82;;
13171;SDS011;6651;53.200;10.432;2023-01-19T09:22:48;9.73;;;6.72;;
13171;SDS011;6651;53.200;10.432;2023-01-19T09:25:14;10.77;;;7.00;;
13171;SDS011;6651;53.200;10.432;2023-01-19T09:27:40;10.35;;;7.28;;
13171;SDS011;6651;53.200;10.432;2023-01-19T09:30:06;8.32;;;6.28;;
13171;SDS011;6651;53.200;10.432;2023-01-19T09:32:35;10.82;;;6.88;;
13171;SDS011;6651;53.200;10.432;2023-01-19T09:35:01;12.50;;;7.93;;
13171;SDS011;6651;53.200;10.432;2023-01-19T09:37:27;9.55;;;7.00;;
13171;SDS011;6651;53.200;10.432;2023-01-19T09:39:53;10.93;;;7.70;;
13171;SDS011;6651;53.200;10.432;2023-01-19T09:47:56;9.88;;;7.03;;
13171;SDS011;6651;53.200;10.432;2023-01-19T09:50:27;8.80;;;6.68;;
13171;SDS011;6651;53.200;10.432;2023-01-19T09:52:57;10.52;;;7.05;;
13171;SDS011;6651;53.200;10.432;2023-01-19T09:55:26;11.40;;;6.60;;
13171;SDS011;6651;53.200;10.432;2023-01-19T09:57:52;11.88;;;7.45;;
13171;SDS011;6651;53.200;10.432;2023-01-19T10:00:19;8.80;;;6.85;;
13171;SDS011;6651;53.200;10.432;2023-01-19T10:02:52;9.60;;;6.63;;
13171;SDS011;6651;53.200;10.432;2023-01-19T10:08:11;10.18;;;6.65;;
13171;SDS011;6651;53.200;10.432;2023-01-19T10:10:41;10.15;;;6.82;;
13171;SDS011;6651;53.200;10.432;2023-01-19T10:23:24;7.75;;;6.10;;
13171;SDS011;6651;53.200;10.432;2023-01-19T10:25:52;9.45;;;6.32;;
13171;SDS011;6651;53.200;10.432;2023-01-19T10:28:20;7.72;;;6.47;;
13171;SDS011;6651;53.200;10.432;2023-01-19T10:30:47;10.85;;;6.43;;
13171;SDS011;6651;53.200;10.432;2023-01-19T10:33:13;8.07;;;6.22;;
13171;SDS011;6651;53.200;10.432;2023-01-19T10:35:39;7.95;;;6.65;;
13171;SDS011;6651;53.200;10.432;2023-01-19T10:38:06;8.75;;;6.63;;
13171;SDS011;6651;53.200;10.432;2023-01-19T10:45:56;9.20;;;6.30;;
13171;SDS011;6651;53.200;10.432;2023-01-19T10:48:22;8.68;;;6.50;;
13171;SDS011;6651;53.200;10.432;2023-01-19T10:50:48;10.40;;;6.78;;
13171;SDS011;6651;53.200;10.432;2023-01-19T10:53:26;8.43;;;6.72;;
13171;SDS011;6651;53.200;10.432;2023-01-19T10:56:08;8.93;;;6.53;;
13171;SDS011;6651;53.200;10.432;2023-01-19T10:58:35;8.88;;;7.13;;
13171;SDS011;6651;53.200;10.432;2023-01-19T11:04:01;9.63;;;7.35;;
13171;SDS011;6651;53.200;10.432;2023-01-19T11:06:43;9.10;;;6.70;;
13171;SDS011;6651;53.200;10.432;2023-01-19T11:09:10;9.50;;;6.95;;
13171;SDS011;6651;53.200;10.432;2023-01-19T11:11:44;10.18;;;6.90;;
13171;SDS011;6651;53.200;10.432;2023-01-19T11:14:11;8.63;;;6.75;;
13171;SDS011;6651;53.200;10.432;2023-01-19T11:16:38;8.25;;;6.45;;
13171;SDS011;6651;53.200;10.432;2023-01-19T11:19:05;10.32;;;6.90;;
13171;SDS011;6651;53.200;10.432;2023-01-19T11:21:39;7.60;;;6.38;;
13171;SDS011;6651;53.200;10.432;2023-01-19T11:24:05;7.80;;;6.30;;
13171;SDS011;6651;53.200;10.432;2023-01-19T11:26:43;9.05;;;6.43;;
13171;SDS011;6651;53.200;10.432;2023-01-19T11:31:43;8.85;;;6.35;;
13171;SDS011;6651;53.200;10.432;2023-01-19T11:36:55;6.68;;;6.00;;
13171;SDS011;6651;53.200;10.432;2023-01-19T11:39:22;6.80;;;5.90;;
13171;SDS011;6651;53.200;10.432;2023-01-19T11:41:50;6.63;;;5.80;;
13171;SDS011;6651;53.200;10.432;2023-01-19T11:44:20;6.47;;;5.60;;
13171;SDS011;6651;53.200;10.432;2023-01-19T11:46:49;6.95;;;5.90;;
13171;SDS011;6651;53.200;10.432;2023-01-19T11:49:35;6.75;;;5.50;;
13171;SDS011;6651;53.200;10.432;2023-01-19T11:52:04;5.97;;;5.35;;
13171;SDS011;6651;53.200;10.432;2023-01-19T11:54:35;6.00;;;5.40;;
13171;SDS011;6651;53.200;10.432;2023-01-19T11:57:09;6.55;;;5.45;;
13171;SDS011;6651;53.200;10.432;2023-01-19T11:59:37;7.75;;;5.70;;
13171;SDS011;6651;53.200;10.432;2023-01-19T12:02:03;7.70;;;6.65;;
13171;SDS011;6651;53.200;10.432;2023-01-19T12:04:36;6.88;;;5.78;;
13171;SDS011;6651;53.200;10.432;2023-01-19T12:07:04;6.35;;;5.63;;
13171;SDS011;6651;53.200;10.432;2023-01-19T12:09:47;6.50;;;5.78;;
13171;SDS011;6651;53.200;10.432;2023-01-19T12:12:26;6.82;;;6.13;;
13171;SDS011;6651;53.200;10.432;2023-01-19T12:17:25;8.32;;;6.13;;
13171;SDS011;6651;53.200;10.432;2023-01-19T12:19:58;7.55;;;6.10;;
13171;SDS011;6651;53.200;10.432;2023-01-19T12:22:25;8.07;;;7.20;;
13171;SDS011;6651;53.200;10.432;2023-01-19T12:25:05;7.90;;;6.78;;
13171;SDS011;6651;53.200;10.432;2023-01-19T12:27:43;7.15;;;6.32;;
13171;SDS011;6651;53.200;10.432;2023-01-19T12:32:43;7.22;;;6.53;;
13171;SDS011;6651;53.200;10.432;2023-01-19T12:37:56;9.30;;;7.65;;
13171;SDS011;6651;53.200;10.432;2023-01-19T12:42:59;7.95;;;7.15;;
13171;SDS011;6651;53.200;10.432;2023-01-19T12:45:44;8.32;;;7.28;;
13171;SDS011;6651;53.200;10.432;2023-01-19T12:48:24;7.82;;;6.72;;
13171;SDS011;6651;53.200;10.432;2023-01-19T12:50:50;8.77;;;7.53;;
13171;SDS011;6651;53.200;10.432;2023-01-19T12:53:18;8.77;;;7.60;;
13171;SDS011;6651;53.200;10.432;2023-01-19T12:55:45;9.73;;;7.88;;
13171;SDS011;6651;53.200;10.432;2023-01-19T12:58:22;8.70;;;7.80;;
13171;SDS011;6651;53.200;10.432;2023-01-19T13:00:49;9.43;;;7.88;;
13171;SDS011;6651;53.200;10.432;2023-01-19T13:03:45;8.95;;;8.05;;
13171;SDS011;6651;53.200;10.432;2023-01-19T13:06:49;9.35;;;8.13;;
13171;SDS011;6651;53.200;10.432;2023-01-19T13:14:40;10.45;;;8.40;;
13171;SDS011;6651;53.200;10.432;2023-01-19T13:17:26;9.57;;;8.57;;
13171;SDS011;6651;53.200;10.432;2023-01-19T13:19:53;9.88;;;8.32;;
13171;SDS011;6651;53.200;10.432;2023-01-19T13:25:11;9.88;;;8.88;;
13171;SDS011;6651;53.200;10.432;2023-01-19T13:27:38;9.52;;;8.43;;
13171;SDS011;6651;53.200;10.432;2023-01-19T13:30:09;10.25;;;8.05;;
13171;SDS011;6651;53.200;10.432;2023-01-19T13:32:36;9.40;;;8.05;;
13171;SDS011;6651;53.200;10.432;2023-01-19T13:35:05;9.75;;;8.23;;
13171;SDS011;6651;53.200;10.432;2023-01-19T13:37:36;9.43;;;8.13;;
13171;SDS011;6651;53.200;10.432;2023-01-19T13:40:03;9.88;;;8.57;;
13171;SDS011;6651;53.200;10.432;2023-01-19T13:44:57;9.57;;;8.20;;
13171;SDS011;6651;53.200;10.432;2023-01-19T13:47:26;9.07;;;7.93;;
13171;SDS011;6651;53.200;10.432;2023-01-19T13:52:33;10.82;;;9.13;;
13171;SDS011;6651;53.200;10.432;2023-01-19T13:55:00;10.88;;;8.80;;
13171;SDS011;6651;53.200;10.432;2023-01-19T13:57:29;10.32;;;8.60;;
13171;SDS011;6651;53.200;10.432;2023-01-19T14:02:38;10.48;;;9.38;;
13171;SDS011;6651;53.200;10.432;2023-01-19T14:05:14;10.18;;;8.60;;
13171;SDS011;6651;53.200;10.432;2023-01-19T14:07:43;11.05;;;8.65;;
13171;SDS011;6651;53.200;10.432;2023-01-19T14:10:12;11.07;;;8.85;;
13171;SDS011;6651;53.200;10.432;2023-01-19T14:12:39;9.60;;;8.60;;
13171;SDS011;6651;53.200;10.432;2023-01-19T14:15:05;10.23;;;8.68;;
13171;SDS011;6651;53.200;10.432;2023-01-19T14:17:37;11.35;;;8.93;;
13171;SDS011;6651;53.200;10.432;2023-01-19T14:20:04;10.13;;;9.10;;
13171;SDS011;6651;53.200;10.432;2023-01-19T14:22:37;12.82;;;9.18;;
13171;SDS011;6651;53.200;10.432;2023-01-19T14:27:48;11.10;;;9.40;;
13171;SDS011;6651;53.200;10.432;2023-01-19T14:30:19;10.00;;;8.93;;
13171;SDS011;6651;53.200;10.432;2023-01-19T14:32:46;10.75;;;9.10;;
13171;SDS011;6651;53.200;10.432;2023-01-19T14:35:13;10.55;;;9.00;;
13171;SDS011;6651;53.200;10.432;2023-01-19T14:37:44;12.57;;;9.10;;
13171;SDS011;6651;53.200;10.432;2023-01-19T14:40:15;11.35;;;9.25;;
13171;SDS011;6651;53.200;10.432;2023-01-19T14:47:40;10.25;;;9.23;;
13171;SDS011;6651;53.200;10.432;2023-01-19T14:50:21;11.50;;;9.55;;
13171;SDS011;6651;53.200;10.432;2023-01-19T14:52:55;11.38;;;9.65;;
13171;SDS011;6651;53.200;10.432;2023-01-19T14:55:32;13.98;;;9.95;;
13171;SDS011;6651;53.200;10.432;2023-01-19T14:57:59;10.75;;;9.63;;
13171;SDS011;6651;53.200;10.432;2023-01-19T15:00:26;10.93;;;8.77;;
13171;SDS011;6651;53.200;10.432;2023-01-19T15:02:52;10.07;;;8.65;;
13171;SDS011;6651;53.200;10.432;2023-01-19T15:05:18;10.35;;;8.85;;
13171;SDS011;6651;53.200;10.432;2023-01-19T15:07:44;10.48;;;9.02;;
13171;SDS011;6651;53.200;10.432;2023-01-19T15:10:20;9.40;;;8.40;;
13171;SDS011;6651;53.200;10.432;2023-01-19T15:12:47;10.68;;;8.65;;
13171;SDS011;6651;53.200;10.432;2023-01-19T15:15:16;11.48;;;9.20;;
13171;SDS011;6651;53.200;10.432;2023-01-19T15:17:46;10.23;;;9.13;;
13171;SDS011;6651;53.200;10.432;2023-01-19T15:20:16;10.23;;;8.88;;
13171;SDS011;6651;53.200;10.432;2023-01-19T15:22:42;11.40;;;8.82;;
13171;SDS011;6651;53.200;10.432;2023-01-19T15:25:11;9.70;;;8.20;;
13171;SDS011;6651;53.200;10.432;2023-01-19T15:27:37;10.55;;;8.52;;
13171;SDS011;6651;53.200;10.432;2023-01-19T15:30:04;12.07;;;8.75;;
13171;SDS011;6651;53.200;10.432;2023-01-19T15:32:30;10.05;;;9.02;;
13171;SDS011;6651;53.200;10.432;2023-01-19T15:34:56;10.40;;;8.05;;
13171;SDS011;6651;53.200;10.432;2023-01-19T15:37:22;10.40;;;9.30;;
13171;SDS011;6651;53.200;10.432;2023-01-19T15:39:49;10.70;;;8.85;;
13171;SDS011;6651;53.200;10.432;2023-01-19T15:42:15;10.30;;;8.80;;
13171;SDS011;6651;53.200;10.432;2023-01-19T15:44:41;10.43;;;8.93;;
13171;SDS011;6651;53.200;10.432;2023-01-19T15:47:08;10.73;;;8.52;;
13171;SDS011;6651;53.200;10.432;2023-01-19T15:49:34;11.18;;;9.75;;
13171;SDS011;6651;53.200;10.432;2023-01-19T15:52:00;13.38;;;9.18;;
13171;SDS011;6651;53.200;10.432;2023-01-19T15:54:26;10.98;;;9.10;;
13171;SDS011;6651;53.200;10.432;2023-01-19T15:56:52;12.18;;;9.75;;
13171;SDS011;6651;53.200;10.432;2023-01-19T15:59:19;11.23;;;8.75;;
13171;SDS011;6651;53.200;10.432;2023-01-19T16:01:45;10.95;;;9.73;;
13171;SDS011;6651;53.200;10.432;2023-01-19T16:04:11;14.23;;;9.80;;